createdAt,value
2023-07-17T00:00:14.201Z,62.01
2023-07-17T00:02:46.029Z,62.17
2023-07-17T00:05:18.030Z,63.19
2023-07-17T00:07:49.933Z,62.70
2023-07-17T00:10:21.751Z,62.93
2023-07-17T00:12:53.540Z,63.21
2023-07-17T00:15:25.399Z,62.83
2023-07-17T00:17:57.194Z,62.96
2023-07-17T00:20:29.044Z,64.42
2023-07-17T00:23:01.063Z,62.79
2023-07-17T00:25:32.906Z,63.92
2023-07-17T00:28:04.735Z,63.40
2023-07-17T00:30:36.592Z,64.75
2023-07-17T00:33:08.532Z,63.23
2023-07-17T00:35:40.344Z,64.93
2023-07-17T00:38:12.131Z,64.13
2023-07-17T00:40:44.314Z,64.67
2023-07-17T00:43:16.221Z,64.83
2023-07-17T00:45:48.915Z,65.03
2023-07-17T00:48:20.806Z,64.55
2023-07-17T00:50:52.932Z,64.55
2023-07-17T00:53:24.693Z,64.91
2023-07-17T00:55:56.580Z,64.98
2023-07-17T00:58:28.408Z,64.85
2023-07-17T01:01:00.272Z,64.90
2023-07-17T01:03:33.281Z,66.17
2023-07-17T01:06:05.791Z,66.39
2023-07-17T01:08:37.656Z,66.28
2023-07-17T01:11:10.264Z,66.28
2023-07-17T01:13:50.335Z,65.75
2023-07-17T01:16:22.106Z,65.75
2023-07-17T01:18:53.958Z,66.43
2023-07-17T01:21:32.581Z,66.16
2023-07-17T01:24:04.616Z,66.10
2023-07-17T01:26:36.380Z,65.89
2023-07-17T01:29:08.200Z,65.85
2023-07-17T01:31:41.440Z,65.83
2023-07-17T01:34:13.248Z,66.43
2023-07-17T01:36:45.133Z,66.04
2023-07-17T01:39:16.965Z,66.27
2023-07-17T01:41:48.841Z,67.44
2023-07-17T01:44:20.688Z,66.26
2023-07-17T01:46:52.491Z,66.79
2023-07-17T01:49:24.347Z,67.23
2023-07-17T01:51:56.186Z,66.69
2023-07-17T01:54:27.944Z,66.50
2023-07-17T01:56:59.743Z,66.61
2023-07-17T01:59:31.624Z,67.42
2023-07-17T02:02:04.444Z,67.39
2023-07-17T02:04:36.369Z,67.26
2023-07-17T02:07:08.160Z,67.45
2023-07-17T02:09:40.108Z,67.55
2023-07-17T02:12:11.888Z,68.58
2023-07-17T02:14:43.686Z,67.67
2023-07-17T02:17:15.506Z,67.51
2023-07-17T02:19:47.268Z,67.89
2023-07-17T02:22:19.039Z,68.50
2023-07-17T02:24:50.816Z,68.39
2023-07-17T02:27:22.738Z,68.63
2023-07-17T02:29:55.388Z,68.54
2023-07-17T02:32:29.708Z,68.27
2023-07-17T02:35:01.522Z,68.60
2023-07-17T02:37:33.598Z,68.66
2023-07-17T02:40:15.180Z,69.78
2023-07-17T02:42:46.981Z,69.00
2023-07-17T02:45:19.193Z,69.33
2023-07-17T02:47:51.196Z,69.83
2023-07-17T02:50:23.081Z,69.51
2023-07-17T02:52:54.965Z,68.90
2023-07-17T02:55:26.987Z,68.55
2023-07-17T02:57:58.837Z,68.56
2023-07-17T03:00:30.648Z,69.04
2023-07-17T03:03:07.098Z,68.67
2023-07-17T03:05:39.107Z,70.10
2023-07-17T03:08:11.539Z,69.20
2023-07-17T03:10:43.367Z,69.04
2023-07-17T03:13:15.232Z,69.03
2023-07-17T03:15:49.047Z,68.62
2023-07-17T03:18:20.858Z,68.68
2023-07-17T03:20:52.862Z,68.54
2023-07-17T03:23:24.666Z,68.72
2023-07-17T03:25:59.460Z,68.78
2023-07-17T03:28:31.501Z,68.21
2023-07-17T03:31:03.468Z,68.32
2023-07-17T03:33:35.652Z,67.71
2023-07-17T03:36:08.122Z,67.50
2023-07-17T03:38:39.883Z,67.68
2023-07-17T03:41:11.671Z,67.12
2023-07-17T03:43:43.448Z,66.58
2023-07-17T03:46:15.601Z,65.17
2023-07-17T03:48:47.386Z,66.20
2023-07-17T03:51:19.334Z,64.88
2023-07-17T03:53:54.307Z,65.54
2023-07-17T03:56:26.254Z,65.47
2023-07-17T03:58:58.035Z,65.04
2023-07-17T04:01:30.778Z,65.25
2023-07-17T04:04:02.667Z,65.52
2023-07-17T04:06:34.478Z,64.69
2023-07-17T04:09:06.262Z,65.35
2023-07-17T04:11:38.030Z,64.74
2023-07-17T04:14:10.331Z,64.65
2023-07-17T04:16:42.137Z,64.35
2023-07-17T04:19:14.061Z,64.19
2023-07-17T04:21:45.807Z,63.75
2023-07-17T04:24:17.665Z,64.70
2023-07-17T04:26:49.544Z,63.98
2023-07-17T04:29:24.712Z,63.59
2023-07-17T04:31:56.579Z,63.46
2023-07-17T04:34:30.191Z,63.35
2023-07-17T04:37:01.999Z,63.67
2023-07-17T04:39:34.167Z,63.10
2023-07-17T04:42:06.096Z,62.68
2023-07-17T04:44:37.880Z,62.25
2023-07-17T04:47:09.757Z,61.85
2023-07-17T04:49:41.668Z,61.94
2023-07-17T04:52:13.469Z,62.63
2023-07-17T04:54:45.217Z,61.45
2023-07-17T04:57:17.154Z,61.73
2023-07-17T04:59:48.929Z,60.50
2023-07-17T05:02:21.028Z,59.81
2023-07-17T05:04:52.885Z,59.31
2023-07-17T05:07:24.686Z,59.25
2023-07-17T05:09:56.518Z,58.13
2023-07-17T05:12:29.235Z,58.15
2023-07-17T05:15:01.068Z,59.26
2023-07-17T05:17:32.946Z,58.80
2023-07-17T05:20:08.059Z,59.74
2023-07-17T05:22:39.901Z,59.36
2023-07-17T05:25:11.737Z,60.47
2023-07-17T05:27:43.549Z,59.58
2023-07-17T05:30:15.545Z,59.84
2023-07-17T05:32:47.386Z,60.64
2023-07-17T05:35:19.463Z,59.94
2023-07-17T05:37:51.322Z,60.21
2023-07-17T05:40:23.212Z,60.62
2023-07-17T05:42:55.211Z,60.23
2023-07-17T05:45:26.980Z,60.02
2023-07-17T05:47:58.799Z,59.96
2023-07-17T05:50:30.601Z,60.02
2023-07-17T05:53:02.408Z,60.17
2023-07-17T05:55:34.175Z,58.88
2023-07-17T05:58:05.924Z,58.02
2023-07-17T06:00:37.729Z,55.99
2023-07-17T06:03:09.567Z,55.24
2023-07-17T06:05:41.465Z,53.49
2023-07-17T06:08:13.237Z,54.18
2023-07-17T06:10:45.076Z,54.42
2023-07-17T06:13:17.914Z,54.81
2023-07-17T06:15:49.729Z,53.10
2023-07-17T06:18:21.581Z,53.40
2023-07-17T06:20:53.397Z,54.59
2023-07-17T06:23:25.277Z,53.58
2023-07-17T06:25:57.486Z,54.62
2023-07-17T06:28:30.812Z,54.59
2023-07-17T06:31:02.612Z,53.91
2023-07-17T06:33:37.280Z,54.99
2023-07-17T06:36:09.212Z,53.00
2023-07-17T06:38:41.109Z,51.82
2023-07-17T06:41:12.871Z,52.34
2023-07-17T06:43:44.814Z,52.47
2023-07-17T06:46:18.245Z,51.54
2023-07-17T06:48:50.261Z,51.29
2023-07-17T06:51:22.052Z,50.35
2023-07-17T06:53:54.799Z,49.79
2023-07-17T06:56:26.582Z,48.13
2023-07-17T06:58:58.812Z,48.62
2023-07-17T07:01:30.611Z,48.75
2023-07-17T07:04:02.481Z,49.35
2023-07-17T07:06:34.360Z,48.39
2023-07-17T07:09:06.162Z,47.65
2023-07-17T07:11:37.974Z,49.26
2023-07-17T07:14:09.751Z,48.84
2023-07-17T07:16:41.601Z,47.31
2023-07-17T07:19:13.461Z,47.57
2023-07-17T07:21:45.335Z,47.17
2023-07-17T07:24:17.160Z,48.05
2023-07-17T07:26:49.046Z,51.06
2023-07-17T07:29:20.844Z,48.17
2023-07-17T07:31:52.858Z,49.43
2023-07-17T07:34:24.909Z,48.72
2023-07-17T07:36:56.692Z,46.84
2023-07-17T07:39:28.470Z,47.14
2023-07-17T07:42:00.338Z,46.65
2023-07-17T07:44:32.109Z,48.00
2023-07-17T07:47:03.967Z,48.09
2023-07-17T07:49:35.912Z,47.39
2023-07-17T07:52:08.251Z,47.42
2023-07-17T07:54:40.066Z,47.96
2023-07-17T07:57:12.078Z,48.81
2023-07-17T07:59:43.859Z,48.18
2023-07-17T08:02:15.796Z,49.31
2023-07-17T08:04:47.683Z,49.88
2023-07-17T08:07:19.498Z,50.01
2023-07-17T08:09:52.687Z,50.79
2023-07-17T08:12:24.550Z,51.63
2023-07-17T08:14:56.330Z,51.49
2023-07-17T08:17:28.165Z,52.11
2023-07-17T08:19:59.982Z,52.51
2023-07-17T08:22:31.776Z,52.49
2023-07-17T08:25:04.073Z,53.58
2023-07-17T08:27:35.895Z,53.95
2023-07-17T08:30:08.480Z,53.52
2023-07-17T08:32:40.395Z,53.66
2023-07-17T08:35:12.327Z,53.54
2023-07-17T08:37:44.124Z,54.25
2023-07-17T08:40:15.939Z,53.39
2023-07-17T08:42:51.292Z,53.56
2023-07-17T08:45:24.604Z,52.93
2023-07-17T08:47:56.814Z,52.95
2023-07-17T08:50:30.094Z,52.56
2023-07-17T08:53:02.141Z,52.73
2023-07-17T08:55:34.109Z,53.60
2023-07-17T08:58:06.209Z,52.84
2023-07-17T09:00:38.304Z,52.32
2023-07-17T09:03:10.208Z,51.19
2023-07-17T09:05:44.544Z,51.83
2023-07-17T09:08:16.541Z,51.53
2023-07-17T09:11:09.854Z,52.15
2023-07-17T09:13:44.174Z,51.48
2023-07-17T09:16:16.902Z,51.51
2023-07-17T09:18:50.231Z,52.70
2023-07-17T09:21:24.285Z,50.76
2023-07-17T09:23:57.978Z,52.23
2023-07-17T09:26:30.678Z,50.12
2023-07-17T09:29:02.552Z,49.85
2023-07-17T09:31:34.329Z,47.85
2023-07-17T09:34:14.612Z,48.72
2023-07-17T09:36:51.482Z,47.29
2023-07-17T09:39:23.782Z,47.95
2023-07-17T09:41:55.550Z,44.93
2023-07-17T09:44:28.431Z,46.46
2023-07-17T09:47:01.388Z,45.08
2023-07-17T09:49:33.284Z,45.55
2023-07-17T09:52:05.529Z,41.98
2023-07-17T09:54:39.952Z,43.55
2023-07-17T09:57:21.497Z,43.71
2023-07-17T09:59:55.988Z,42.60
2023-07-17T10:02:57.320Z,42.72
2023-07-17T10:05:30.006Z,41.23
2023-07-17T10:08:06.816Z,42.59
2023-07-17T10:10:39.049Z,40.86
2023-07-17T10:13:12.356Z,41.79
2023-07-17T10:15:47.080Z,41.78
2023-07-17T10:18:18.863Z,39.98
2023-07-17T10:20:55.446Z,40.51
2023-07-17T10:23:28.862Z,41.04
2023-07-17T10:26:09.489Z,41.00
2023-07-17T10:28:42.742Z,41.24
2023-07-17T10:31:20.844Z,40.74
2023-07-17T10:33:57.089Z,41.30
2023-07-17T10:36:44.381Z,40.52
2023-07-17T10:39:20.752Z,40.68
2023-07-17T10:41:52.732Z,40.29
2023-07-17T10:44:24.630Z,40.47
2023-07-17T10:46:56.576Z,40.23
2023-07-17T10:49:28.371Z,40.70
2023-07-17T10:52:00.139Z,40.58
2023-07-17T10:54:31.963Z,41.74
2023-07-17T10:57:04.456Z,41.98
2023-07-17T10:59:36.996Z,41.49
2023-07-17T11:02:08.908Z,41.59
2023-07-17T11:04:40.721Z,41.62
2023-07-17T11:07:13.211Z,42.16
2023-07-17T11:09:45.840Z,41.91
2023-07-17T11:12:20.377Z,41.37
2023-07-17T11:14:55.208Z,41.62
2023-07-17T11:17:27.147Z,40.48
2023-07-17T11:20:04.952Z,40.30
2023-07-17T11:22:38.192Z,39.15
2023-07-17T11:25:12.249Z,40.66
2023-07-17T11:27:44.414Z,39.84
2023-07-17T11:30:27.423Z,39.47
2023-07-17T11:32:59.313Z,40.57
2023-07-17T11:35:42.038Z,38.32
2023-07-17T11:38:17.090Z,39.07
2023-07-17T11:40:59.734Z,38.92
2023-07-17T11:43:38.983Z,40.25
2023-07-17T11:46:11.232Z,39.78
2023-07-17T11:48:46.033Z,38.48
2023-07-17T11:51:18.073Z,40.27
2023-07-17T11:53:57.341Z,39.15
2023-07-17T11:56:41.216Z,39.69
2023-07-17T11:59:25.718Z,39.14
2023-07-17T12:01:57.750Z,40.21
2023-07-17T12:04:33.755Z,39.96
2023-07-17T12:07:06.067Z,39.78
2023-07-17T12:09:37.870Z,41.65
2023-07-17T12:12:10.231Z,42.65
2023-07-17T12:14:42.142Z,43.26
2023-07-17T12:17:14.232Z,43.06
2023-07-17T12:19:46.029Z,43.21
2023-07-17T12:24:52.800Z,43.35
2023-07-17T12:27:26.292Z,44.04
2023-07-17T12:30:00.597Z,44.16
2023-07-17T12:32:32.407Z,44.72
2023-07-17T12:35:04.461Z,45.32
2023-07-17T12:37:37.000Z,45.65
2023-07-17T12:40:09.491Z,45.09
2023-07-17T12:42:41.504Z,44.87
2023-07-17T12:45:13.432Z,44.92
2023-07-17T12:47:46.090Z,45.04
2023-07-17T12:50:18.118Z,45.24
2023-07-17T12:52:49.914Z,45.70
2023-07-17T12:55:23.205Z,45.85
2023-07-17T12:57:55.701Z,46.08
2023-07-17T13:00:27.812Z,46.37
2023-07-17T13:02:59.836Z,46.84
2023-07-17T13:05:31.730Z,47.23
2023-07-17T13:08:04.517Z,46.49
2023-07-17T13:10:36.683Z,46.12
2023-07-17T13:13:08.457Z,46.28
2023-07-17T13:15:40.285Z,46.26
2023-07-17T13:18:12.181Z,46.40
2023-07-17T13:20:44.326Z,46.87
2023-07-17T13:23:16.262Z,47.20
2023-07-17T13:25:48.198Z,47.55
2023-07-17T13:28:20.093Z,47.11
2023-07-17T13:31:07.411Z,47.67
2023-07-17T13:33:41.713Z,47.62
2023-07-17T13:36:13.575Z,47.33
2023-07-17T13:38:45.514Z,47.67
2023-07-17T13:41:49.388Z,48.05
2023-07-17T13:44:22.053Z,48.35
2023-07-17T13:46:53.982Z,48.17
2023-07-17T13:49:25.815Z,48.11
2023-07-17T13:51:57.660Z,48.40
2023-07-17T13:54:29.625Z,49.03
2023-07-17T13:57:03.212Z,49.71
2023-07-17T13:59:35.255Z,48.55
2023-07-17T14:02:07.369Z,48.79
2023-07-17T14:04:41.005Z,49.31
2023-07-17T14:07:13.065Z,49.96
2023-07-17T14:09:44.863Z,49.19
2023-07-17T14:12:16.720Z,49.35
2023-07-17T14:14:48.491Z,49.22
2023-07-17T14:17:20.476Z,49.47
2023-07-17T14:19:52.290Z,48.39
2023-07-17T14:22:24.313Z,48.89
2023-07-17T14:24:56.463Z,49.46
2023-07-17T14:27:28.618Z,49.37
2023-07-17T14:30:00.417Z,50.16
2023-07-17T14:32:32.289Z,49.57
2023-07-17T14:35:04.303Z,49.12
2023-07-17T14:37:36.293Z,49.90
2023-07-17T14:40:08.760Z,49.22
2023-07-17T14:42:40.583Z,49.31
2023-07-17T14:45:12.471Z,50.02
2023-07-17T14:47:44.454Z,49.96
2023-07-17T14:50:21.288Z,50.39
2023-07-17T14:52:53.295Z,50.43
2023-07-17T14:55:25.619Z,50.31
2023-07-17T14:57:57.432Z,50.97
2023-07-17T15:00:29.272Z,51.00
2023-07-17T15:03:01.254Z,51.28
2023-07-17T15:05:33.101Z,51.40
2023-07-17T15:08:05.073Z,50.77
2023-07-17T15:10:37.046Z,51.05
2023-07-17T15:13:09.119Z,51.17
2023-07-17T15:15:41.003Z,51.08
2023-07-17T15:18:12.811Z,51.47
2023-07-17T15:20:44.596Z,51.40
2023-07-17T15:23:16.614Z,52.01
2023-07-17T15:25:48.879Z,51.59
2023-07-17T15:28:20.783Z,51.60
2023-07-17T15:30:52.584Z,51.96
2023-07-17T15:33:26.856Z,51.54
2023-07-17T15:35:58.745Z,51.57
2023-07-17T15:38:30.500Z,50.35
2023-07-17T15:41:02.311Z,51.17
2023-07-17T15:43:34.645Z,51.03
2023-07-17T15:46:06.532Z,50.93
2023-07-17T15:48:38.296Z,50.43
2023-07-17T15:51:10.148Z,50.06
2023-07-17T15:53:42.069Z,51.06
2023-07-17T15:56:13.916Z,51.07
2023-07-17T15:58:45.771Z,50.92
2023-07-17T16:01:18.766Z,50.45
2023-07-17T16:03:50.679Z,51.39
2023-07-17T16:06:22.485Z,50.95
2023-07-17T16:08:54.261Z,50.66
2023-07-17T16:11:26.089Z,50.13
2023-07-17T16:13:57.900Z,50.29
2023-07-17T16:16:29.769Z,49.97
2023-07-17T16:19:01.564Z,50.74
2023-07-17T16:21:33.474Z,50.17
2023-07-17T16:24:05.544Z,52.13
2023-07-17T16:26:37.352Z,53.84
2023-07-17T16:29:09.129Z,53.03
2023-07-17T16:31:41.415Z,52.94
2023-07-17T16:34:13.241Z,53.13
2023-07-17T16:36:46.255Z,52.46
2023-07-17T16:39:18.579Z,52.97
2023-07-17T16:41:50.419Z,52.83
2023-07-17T16:44:22.330Z,52.88
2023-07-17T16:46:54.190Z,53.16
2023-07-17T16:49:26.002Z,53.29
2023-07-17T16:51:57.812Z,53.33
2023-07-17T16:54:29.728Z,54.30
2023-07-17T16:57:01.671Z,54.15
2023-07-17T16:59:33.477Z,54.44
2023-07-17T17:02:05.855Z,54.45
2023-07-17T17:04:37.709Z,54.50
2023-07-17T17:07:09.564Z,54.99
2023-07-17T17:09:41.395Z,55.60
2023-07-17T17:12:13.331Z,55.90
2023-07-17T17:14:45.307Z,55.47
2023-07-17T17:17:17.437Z,56.33
2023-07-17T17:19:49.298Z,56.50
2023-07-17T17:22:21.325Z,56.49
2023-07-17T17:24:53.158Z,56.63
2023-07-17T17:27:26.847Z,56.96
2023-07-17T17:30:01.221Z,57.56
2023-07-17T17:32:33.586Z,57.90
2023-07-17T17:35:06.635Z,58.06
2023-07-17T17:37:38.493Z,58.39
2023-07-17T17:40:10.512Z,59.08
2023-07-17T17:42:42.433Z,59.95
2023-07-17T17:45:15.622Z,59.86
2023-07-17T17:47:47.682Z,59.93
2023-07-17T17:50:19.531Z,59.94
2023-07-17T17:52:52.014Z,60.92
2023-07-17T17:55:23.829Z,60.21
2023-07-17T17:57:55.627Z,60.50
2023-07-17T18:00:27.413Z,61.33
2023-07-17T18:02:59.546Z,60.47
2023-07-17T18:05:31.565Z,61.18
2023-07-17T18:08:03.749Z,61.10
2023-07-17T18:10:36.314Z,61.96
2023-07-17T18:13:08.151Z,61.86
2023-07-17T18:15:40.262Z,61.86
2023-07-17T18:18:14.317Z,62.01
2023-07-17T18:20:46.891Z,58.97
2023-07-17T18:23:18.860Z,56.25
2023-07-17T18:25:50.657Z,54.92
2023-07-17T18:28:22.460Z,55.01
2023-07-17T18:30:54.315Z,55.72
2023-07-17T18:33:26.971Z,55.58
2023-07-17T18:35:59.143Z,55.00
2023-07-17T18:38:30.916Z,54.42
2023-07-17T18:41:03.652Z,54.20
2023-07-17T18:43:35.453Z,53.61
2023-07-17T18:46:07.325Z,53.63
2023-07-17T18:48:39.288Z,53.15
2023-07-17T18:51:11.397Z,52.90
2023-07-17T18:53:43.225Z,52.94
2023-07-17T18:56:15.237Z,52.74
2023-07-17T18:58:47.029Z,53.30
2023-07-17T19:01:19.189Z,53.33
2023-07-17T19:03:52.418Z,52.74
2023-07-17T19:06:24.270Z,53.14
2023-07-17T19:08:56.801Z,53.39
2023-07-17T19:11:28.596Z,53.42
2023-07-17T19:14:00.381Z,53.82
2023-07-17T19:16:32.307Z,54.14
2023-07-17T19:19:04.342Z,54.64
2023-07-17T19:21:37.103Z,54.00
2023-07-17T19:24:08.912Z,55.06
2023-07-17T19:26:40.881Z,56.22
2023-07-17T19:29:12.686Z,56.08
2023-07-17T19:31:44.594Z,55.73
2023-07-17T19:34:19.374Z,56.29
2023-07-17T19:36:51.240Z,55.73
2023-07-17T19:39:23.692Z,55.54
2023-07-17T19:41:55.496Z,56.03
2023-07-17T19:44:27.269Z,56.33
2023-07-17T19:47:00.783Z,56.06
2023-07-17T19:49:33.611Z,56.68
2023-07-17T19:52:06.167Z,56.46
2023-07-17T19:54:37.962Z,56.39
2023-07-17T19:57:09.751Z,56.33
2023-07-17T19:59:41.508Z,56.38
2023-07-17T20:02:13.292Z,57.20
2023-07-17T20:04:45.142Z,57.12
2023-07-17T20:07:16.996Z,57.38
2023-07-17T20:09:49.362Z,57.33
2023-07-17T20:12:21.714Z,57.72
2023-07-17T20:14:53.471Z,58.28
2023-07-17T20:17:26.578Z,58.05
2023-07-17T20:19:58.398Z,58.05
2023-07-17T20:22:30.245Z,58.14
2023-07-17T20:25:02.047Z,57.85
2023-07-17T20:27:39.759Z,58.16
2023-07-17T20:30:13.894Z,58.19
2023-07-17T20:32:45.847Z,58.92
2023-07-17T20:35:27.323Z,58.63
2023-07-17T20:38:00.645Z,59.02
2023-07-17T20:40:33.685Z,59.20
2023-07-17T20:43:05.527Z,59.64
2023-07-17T20:45:49.714Z,60.88
2023-07-17T20:48:22.135Z,62.52
2023-07-17T20:51:10.711Z,63.22
2023-07-17T20:53:43.317Z,63.32
2023-07-17T20:56:15.760Z,64.35
2023-07-17T20:58:47.631Z,65.17
2023-07-17T21:01:24.690Z,65.59
2023-07-17T21:03:58.756Z,64.76
2023-07-17T21:06:31.063Z,65.82
2023-07-17T21:09:03.000Z,66.08
2023-07-17T21:11:34.775Z,67.20
2023-07-17T21:14:06.607Z,68.07
2023-07-17T21:16:38.415Z,68.26
2023-07-17T21:19:10.173Z,67.90
2023-07-17T21:21:42.179Z,68.43
2023-07-17T21:24:14.026Z,68.30
2023-07-17T21:26:45.817Z,68.54
2023-07-17T21:29:17.586Z,69.60
2023-07-17T21:31:49.369Z,69.90
2023-07-17T21:34:21.157Z,69.94
2023-07-17T21:36:52.911Z,69.93
2023-07-17T21:39:25.338Z,69.16
2023-07-17T21:41:57.204Z,69.85
2023-07-17T21:44:29.176Z,70.74
2023-07-17T21:47:01.036Z,70.48
2023-07-17T21:49:32.897Z,70.10
2023-07-17T21:52:05.003Z,70.49
2023-07-17T21:54:36.813Z,71.14
2023-07-17T21:57:08.606Z,71.84
2023-07-17T21:59:43.357Z,71.82
2023-07-17T22:02:15.151Z,71.75
2023-07-17T22:04:47.275Z,72.21
2023-07-17T22:07:19.041Z,71.69
2023-07-17T22:09:52.211Z,72.26
2023-07-17T22:12:23.975Z,71.99
2023-07-17T22:14:55.978Z,72.79
2023-07-17T22:17:27.866Z,72.26
2023-07-17T22:20:01.240Z,72.76
2023-07-17T22:22:33.214Z,74.11
2023-07-17T22:25:05.443Z,74.33
2023-07-17T22:27:37.237Z,74.34
2023-07-17T22:30:09.791Z,73.84
2023-07-17T22:32:42.075Z,74.65
2023-07-17T22:35:13.905Z,74.08
2023-07-17T22:37:45.675Z,74.37
2023-07-17T22:40:17.485Z,73.67
2023-07-17T22:42:50.210Z,75.21
2023-07-17T22:45:22.035Z,75.24
2023-07-17T22:47:56.185Z,74.97
2023-07-17T22:50:28.050Z,75.02
2023-07-17T22:52:59.969Z,74.62
2023-07-17T22:55:32.366Z,74.48
2023-07-17T22:58:04.169Z,73.75
2023-07-17T23:00:35.986Z,74.47
2023-07-17T23:03:07.940Z,75.55
2023-07-17T23:05:39.911Z,75.39
2023-07-17T23:08:11.741Z,75.38
2023-07-17T23:10:43.508Z,74.84
2023-07-17T23:13:16.105Z,75.46
2023-07-17T23:15:48.032Z,75.30
2023-07-17T23:18:20.923Z,76.12
2023-07-17T23:20:52.835Z,75.10
2023-07-17T23:23:24.737Z,77.08
2023-07-17T23:25:56.526Z,77.31
2023-07-17T23:28:28.323Z,77.33
2023-07-17T23:31:00.093Z,76.90
2023-07-17T23:33:31.933Z,78.22
2023-07-17T23:36:04.071Z,78.16
2023-07-17T23:38:36.834Z,77.80
2023-07-17T23:41:09.109Z,77.02
2023-07-17T23:43:40.941Z,76.86
2023-07-17T23:46:12.784Z,76.85
2023-07-17T23:48:45.887Z,76.47
2023-07-17T23:51:19.724Z,77.57
2023-07-17T23:53:51.723Z,77.85
2023-07-17T23:56:23.551Z,77.35
2023-07-17T23:58:55.330Z,77.52
